Time;durP1;ratioP1;P1;durP2;ratioP2;P2;SDS_P1;SDS_P2;PMS_P1;PMS_P2;Temp;Humidity;BMP_temperature;BMP_pressure;BME280_temperature;BME280_humidity;BME280_pressure;Samples;Min_cycle;Max_cycle;Signal;HPM_P1;HPM_P2
2022/09/09 00:02:08;;;;;;;1.17;0.60;;;;;;;;;;5069858;28;20016;-44
2022/09/09 00:04:34;;;;;;;5.38;0.63;;;;;;;;;;5071393;28;20101;-45
2022/09/09 00:07:00;;;;;;;2.83;0.60;;;;;;;;;;5069857;28;20016;-43
2022/09/09 00:09:27;;;;;;;0.80;0.50;;;;;;;;;;5070816;28;20421;-44
2022/09/09 00:12:04;;;;;;;1.90;0.57;;;;;;;;;;5071068;28;20071;-43
2022/09/09 00:14:51;;;;;;;1.95;0.45;;;;;;;;;;5071099;28;20074;-44
2022/09/09 00:17:33;;;;;;;0.40;0.40;;;;;;;;;;5071311;28;20090;-44
2022/09/09 00:20:02;;;;;;;1.20;0.47;;;;;;;;;;5071018;28;20029;-44
2022/09/09 00:22:30;;;;;;;6.30;0.70;;;;;;;;;;5070046;28;20107;-44
2022/09/09 00:25:02;;;;;;;0.50;0.50;;;;;;;;;;5070958;28;20490;-44
2022/09/09 00:27:39;;;;;;;0.82;0.50;;;;;;;;;;5071284;28;20090;-43
2022/09/09 00:30:19;;;;;;;1.65;0.50;;;;;;;;;;5069816;28;20053;-44
2022/09/09 00:32:45;;;;;;;0.68;0.60;;;;;;;;;;5072478;28;20078;-43
2022/09/09 00:35:21;;;;;;;2.00;1.00;;;;;;;;;;5074651;28;20028;-44
2022/09/09 00:37:48;;;;;;;1.05;0.52;;;;;;;;;;5073301;28;20043;-44
2022/09/09 00:40:32;;;;;;;0.75;0.60;;;;;;;;;;5074962;28;20070;-44
2022/09/09 00:43:06;;;;;;;0.55;0.40;;;;;;;;;;5074545;28;20467;-44
2022/09/09 00:45:34;;;;;;;1.75;0.68;;;;;;;;;;5074453;28;20034;-44
2022/09/09 00:48:04;;;;;;;1.60;0.73;;;;;;;;;;5074668;28;20478;-44
2022/09/09 00:50:32;;;;;;;1.17;0.77;;;;;;;;;;5074421;28;20547;-44
2022/09/09 00:53:18;;;;;;;1.73;0.65;;;;;;;;;;5074597;28;20056;-44
2022/09/09 00:55:55;;;;;;;0.90;0.43;;;;;;;;;;5072975;28;20364;-45
2022/09/09 00:58:21;;;;;;;0.75;0.50;;;;;;;;;;5074273;28;20059;-44
2022/09/09 01:00:49;;;;;;;6.10;0.70;;;;;;;;;;5074236;28;20459;-44
2022/09/09 01:03:30;;;;;;;0.93;0.50;;;;;;;;;;5074317;28;20033;-44
2022/09/09 01:06:14;;;;;;;0.60;0.35;;;;;;;;;;5074074;28;20115;-45
2022/09/09 01:08:50;;;;;;;1.05;0.73;;;;;;;;;;5072656;28;20391;-43
2022/09/09 01:11:42;;;;;;;1.02;0.45;;;;;;;;;;5072738;28;20056;-43
2022/09/09 01:14:14;;;;;;;0.95;0.57;;;;;;;;;;5042627;28;20033;-43
2022/09/09 01:16:41;;;;;;;2.30;1.03;;;;;;;;;;5072627;28;20487;-44
2022/09/09 01:19:10;;;;;;;0.70;0.57;;;;;;;;;;5072632;28;20016;-44
2022/09/09 01:22:08;;;;;;;1.10;0.63;;;;;;;;;;5072594;28;20190;-43
2022/09/09 01:24:45;;;;;;;0.98;0.68;;;;;;;;;;5028907;28;20501;-43
2022/09/09 01:27:31;;;;;;;2.60;0.57;;;;;;;;;;5052331;28;20033;-44
2022/09/09 01:29:59;;;;;;;2.95;0.60;;;;;;;;;;5072252;28;20119;-44
2022/09/09 01:32:46;;;;;;;1.42;0.82;;;;;;;;;;5072431;28;20027;-44
2022/09/09 01:35:18;;;;;;;2.97;1.05;;;;;;;;;;5073676;28;20066;-44
2022/09/09 01:37:44;;;;;;;2.40;0.82;;;;;;;;;;5072394;28;20063;-43
2022/09/09 01:40:09;;;;;;;0.95;0.50;;;;;;;;;;5072313;28;20017;-44
2022/09/09 01:42:36;;;;;;;2.35;0.50;;;;;;;;;;5072135;28;20036;-43
2022/09/09 01:45:02;;;;;;;3.70;1.20;;;;;;;;;;5072035;28;20463;-44
2022/09/09 01:47:28;;;;;;;0.63;0.50;;;;;;;;;;5072167;28;20033;-44
2022/09/09 01:50:12;;;;;;;2.50;0.90;;;;;;;;;;5072120;28;20127;-44
2022/09/09 01:52:38;;;;;;;1.40;0.90;;;;;;;;;;5072064;28;20123;-44
2022/09/09 01:55:08;;;;;;;1.73;0.88;;;;;;;;;;5071946;28;20458;-44
2022/09/09 01:57:46;;;;;;;0.98;0.77;;;;;;;;;;5071982;28;20076;-44
2022/09/09 02:00:13;;;;;;;0.90;0.60;;;;;;;;;;5071920;28;20089;-43
2022/09/09 02:03:13;;;;;;;1.30;0.60;;;;;;;;;;5073278;28;20024;-44
2022/09/09 02:06:05;;;;;;;1.58;0.68;;;;;;;;;;5033414;28;20045;-44
2022/09/09 02:08:42;;;;;;;3.47;1.23;;;;;;;;;;5072924;28;20032;-44
2022/09/09 02:11:19;;;;;;;0.90;0.80;;;;;;;;;;5072776;28;20056;-44
2022/09/09 02:13:53;;;;;;;1.17;0.82;;;;;;;;;;5071799;28;20063;-44
2022/09/09 02:16:22;;;;;;;1.20;0.85;;;;;;;;;;5071493;28;20387;-44
2022/09/09 02:19:08;;;;;;;2.05;0.77;;;;;;;;;;5071321;28;20421;-44
2022/09/09 02:21:48;;;;;;;3.10;0.77;;;;;;;;;;5071335;28;20119;-44
2022/09/09 02:24:15;;;;;;;1.48;1.20;;;;;;;;;;5054758;28;20432;-43
2022/09/09 02:26:47;;;;;;;3.22;1.50;;;;;;;;;;5071261;28;20017;-44
2022/09/09 02:29:18;;;;;;;0.95;0.63;;;;;;;;;;5054952;28;20052;-44
2022/09/09 02:31:46;;;;;;;1.55;1.25;;;;;;;;;;5071126;28;20507;-44
2022/09/09 02:34:18;;;;;;;1.58;0.88;;;;;;;;;;5071128;28;20085;-43
2022/09/09 02:36:44;;;;;;;2.05;1.13;;;;;;;;;;5071109;28;20036;-44
2022/09/09 02:39:10;;;;;;;1.05;0.90;;;;;;;;;;5071006;28;20019;-44
2022/09/09 02:41:37;;;;;;;2.00;1.05;;;;;;;;;;5071069;28;20032;-43
2022/09/09 02:44:05;;;;;;;1.45;0.85;;;;;;;;;;5070867;28;20069;-43
2022/09/09 02:46:36;;;;;;;2.67;1.00;;;;;;;;;;5072204;28;20448;-43
2022/09/09 02:49:18;;;;;;;5.60;1.30;;;;;;;;;;5070752;28;20060;-44
2022/09/09 02:51:55;;;;;;;1.08;1.00;;;;;;;;;;5070746;28;20024;-44
2022/09/09 02:54:31;;;;;;;1.00;0.82;;;;;;;;;;5070312;28;20118;-43
2022/09/09 02:57:10;;;;;;;1.48;1.30;;;;;;;;;;5070725;28;20024;-45
2022/09/09 02:59:38;;;;;;;3.17;1.05;;;;;;;;;;5070689;28;20556;-44
2022/09/09 03:02:04;;;;;;;1.27;1.00;;;;;;;;;;5070620;28;20463;-44
2022/09/09 03:04:31;;;;;;;2.50;1.00;;;;;;;;;;5070575;28;20494;-44
2022/09/09 03:06:57;;;;;;;1.38;1.15;;;;;;;;;;5070547;28;20103;-44
2022/09/09 03:09:22;;;;;;;1.83;1.20;;;;;;;;;;5071819;28;20089;-44
2022/09/09 03:11:49;;;;;;;1.30;0.90;;;;;;;;;;5070392;28;20121;-43
2022/09/09 03:14:16;;;;;;;1.02;0.80;;;;;;;;;;5070391;28;20032;-44
2022/09/09 03:16:42;;;;;;;1.70;1.08;;;;;;;;;;5070354;28;20062;-43
2022/09/09 03:19:09;;;;;;;1.52;1.30;;;;;;;;;;5071839;28;20036;-43
2022/09/09 03:21:38;;;;;;;1.52;1.00;;;;;;;;;;5071623;28;20074;-43
2022/09/09 03:24:04;;;;;;;1.83;1.00;;;;;;;;;;5070237;28;20102;-48
2022/09/09 03:26:31;;;;;;;1.70;1.15;;;;;;;;;;5071658;28;20091;-43
2022/09/09 03:28:59;;;;;;;1.67;1.00;;;;;;;;;;5071278;28;20109;-44
2022/09/09 03:31:25;;;;;;;1.38;0.82;;;;;;;;;;5071886;28;20029;-43
2022/09/09 03:33:51;;;;;;;1.92;1.42;;;;;;;;;;5070088;28;20692;-44
2022/09/09 03:36:18;;;;;;;2.65;1.08;;;;;;;;;;5070187;28;20114;-44
2022/09/09 03:38:43;;;;;;;3.40;1.20;;;;;;;;;;5053471;28;20119;-44
2022/09/09 03:41:10;;;;;;;1.42;0.93;;;;;;;;;;5070133;28;20013;-44
2022/09/09 03:43:37;;;;;;;1.48;0.93;;;;;;;;;;5070099;28;20040;-43
2022/09/09 03:46:04;;;;;;;1.45;0.98;;;;;;;;;;5070033;28;20016;-43
2022/09/09 03:48:29;;;;;;;1.13;1.02;;;;;;;;;;5069961;28;20414;-43
2022/09/09 03:50:57;;;;;;;1.30;0.98;;;;;;;;;;5070060;28;20033;-43
2022/09/09 03:53:24;;;;;;;1.80;1.40;;;;;;;;;;5070029;28;20479;-44
2022/09/09 03:55:54;;;;;;;1.33;0.80;;;;;;;;;;5069894;28;20020;-44
2022/09/09 03:58:23;;;;;;;1.05;0.95;;;;;;;;;;5069951;28;20038;-44
2022/09/09 04:01:12;;;;;;;3.85;1.00;;;;;;;;;;5069896;28;20024;-43
2022/09/09 04:03:38;;;;;;;1.83;1.48;;;;;;;;;;5069879;28;20083;-43
2022/09/09 04:06:04;;;;;;;7.97;1.48;;;;;;;;;;5070041;28;20464;-43
2022/09/09 04:08:31;;;;;;;0.95;0.68;;;;;;;;;;5073910;28;20210;-43
2022/09/09 04:11:00;;;;;;;1.27;1.02;;;;;;;;;;5073626;28;20117;-44
2022/09/09 04:13:27;;;;;;;4.45;1.10;;;;;;;;;;5075481;28;20109;-44
2022/09/09 04:15:54;;;;;;;1.80;1.23;;;;;;;;;;5073685;28;20021;-44
2022/09/09 04:18:20;;;;;;;2.88;0.70;;;;;;;;;;5073764;28;20036;-43
2022/09/09 04:20:46;;;;;;;1.52;1.10;;;;;;;;;;5073678;28;20024;-44
2022/09/09 04:23:13;;;;;;;3.85;2.58;;;;;;;;;;5075100;28;20090;-44
2022/09/09 04:25:43;;;;;;;7.28;1.55;;;;;;;;;;5073571;28;20048;-43
2022/09/09 04:28:09;;;;;;;2.13;1.23;;;;;;;;;;5073645;28;20059;-43
2022/09/09 04:30:35;;;;;;;0.98;0.88;;;;;;;;;;5073608;28;20052;-44
2022/09/09 04:33:01;;;;;;;5.13;1.10;;;;;;;;;;5056618;28;20101;-43
2022/09/09 04:35:27;;;;;;;2.13;1.58;;;;;;;;;;5073471;28;20021;-43
2022/09/09 04:37:53;;;;;;;2.08;1.23;;;;;;;;;;5073366;28;20074;-44
2022/09/09 04:40:18;;;;;;;1.67;1.20;;;;;;;;;;5074678;28;20032;-44
2022/09/09 04:42:44;;;;;;;3.63;0.80;;;;;;;;;;5073554;28;20040;-43
2022/09/09 04:45:13;;;;;;;1.85;1.48;;;;;;;;;;5073140;28;20058;-43
2022/09/09 04:47:39;;;;;;;3.83;1.55;;;;;;;;;;5073232;28;20028;-43
2022/09/09 04:50:06;;;;;;;2.03;1.20;;;;;;;;;;5073076;28;20029;-43
2022/09/09 04:52:34;;;;;;;1.83;1.25;;;;;;;;;;5073132;28;20032;-43
2022/09/09 04:55:00;;;;;;;1.15;1.05;;;;;;;;;;5074344;28;20055;-44
2022/09/09 04:57:26;;;;;;;1.85;1.33;;;;;;;;;;5073063;28;20024;-43
2022/09/09 04:59:52;;;;;;;2.53;1.92;;;;;;;;;;5072918;28;20027;-44
2022/09/09 05:02:17;;;;;;;1.42;1.10;;;;;;;;;;5072928;28;20040;-44
2022/09/09 05:04:43;;;;;;;3.42;1.02;;;;;;;;;;5072864;28;20020;-44
2022/09/09 05:07:10;;;;;;;1.33;0.98;;;;;;;;;;5074205;28;20111;-43
2022/09/09 05:09:35;;;;;;;1.75;1.05;;;;;;;;;;5073987;28;20033;-44
2022/09/09 05:12:02;;;;;;;5.47;1.60;;;;;;;;;;5072903;28;20025;-44
2022/09/09 05:14:31;;;;;;;3.05;1.55;;;;;;;;;;5071474;28;20036;-44
2022/09/09 05:16:59;;;;;;;1.42;1.05;;;;;;;;;;5054711;28;20055;-44
2022/09/09 05:19:28;;;;;;;2.35;1.40;;;;;;;;;;5071945;28;20506;-43
2022/09/09 05:21:54;;;;;;;1.95;1.00;;;;;;;;;;5071307;28;20056;-43
2022/09/09 05:24:25;;;;;;;1.35;0.98;;;;;;;;;;5071542;28;20032;-44
2022/09/09 05:26:54;;;;;;;1.58;0.90;;;;;;;;;;5071315;28;20406;-44
2022/09/09 05:29:19;;;;;;;2.20;1.17;;;;;;;;;;5071241;28;20032;-44
2022/09/09 05:31:46;;;;;;;1.58;1.17;;;;;;;;;;5072682;28;20029;-44
2022/09/09 05:34:18;;;;;;;2.10;1.35;;;;;;;;;;5071288;28;20025;-43
2022/09/09 05:36:43;;;;;;;1.73;1.35;;;;;;;;;;5072687;28;20029;-44
2022/09/09 05:39:09;;;;;;;1.88;1.23;;;;;;;;;;5071281;28;20023;-44
2022/09/09 05:41:35;;;;;;;2.40;1.73;;;;;;;;;;5072837;28;20024;-43
2022/09/09 05:44:03;;;;;;;1.95;1.13;;;;;;;;;;5072496;28;20044;-43
2022/09/09 05:46:33;;;;;;;1.77;1.50;;;;;;;;;;5071094;28;20032;-44
2022/09/09 05:49:00;;;;;;;2.72;1.77;;;;;;;;;;5070965;28;20091;-43
2022/09/09 05:51:32;;;;;;;1.92;1.42;;;;;;;;;;5070968;28;20505;-44
2022/09/09 05:54:02;;;;;;;1.60;1.35;;;;;;;;;;5070917;28;20035;-44
2022/09/09 05:56:32;;;;;;;3.17;1.75;;;;;;;;;;5070889;28;20082;-44
2022/09/09 05:58:59;;;;;;;2.50;1.70;;;;;;;;;;5070771;28;20433;-43
2022/09/09 06:01:28;;;;;;;3.97;1.30;;;;;;;;;;5072172;28;20613;-44
2022/09/09 06:03:54;;;;;;;4.03;1.58;;;;;;;;;;5070673;28;20029;-44
2022/09/09 06:06:23;;;;;;;1.50;1.40;;;;;;;;;;5070793;28;20017;-44
2022/09/09 06:08:51;;;;;;;2.63;1.42;;;;;;;;;;5070570;28;20036;-45
2022/09/09 06:11:18;;;;;;;3.28;0.95;;;;;;;;;;5026426;28;1280297;-44
2022/09/09 06:13:45;;;;;;;2.42;1.10;;;;;;;;;;5071451;28;20097;-44
2022/09/09 06:16:12;;;;;;;3.67;1.20;;;;;;;;;;5071553;28;20433;-44
2022/09/09 06:18:39;;;;;;;1.33;1.20;;;;;;;;;;5071466;28;20086;-44
2022/09/09 06:21:06;;;;;;;2.20;1.27;;;;;;;;;;5071374;28;20025;-44
2022/09/09 06:23:32;;;;;;;1.35;0.90;;;;;;;;;;5071532;28;20055;-43
2022/09/09 06:26:05;;;;;;;3.45;1.50;;;;;;;;;;5072802;28;20020;-44
2022/09/09 06:28:33;;;;;;;4.65;1.25;;;;;;;;;;5070937;28;20483;-44
2022/09/09 06:30:59;;;;;;;2.15;1.20;;;;;;;;;;5070744;28;20029;-44
2022/09/09 06:33:25;;;;;;;3.97;1.42;;;;;;;;;;5071123;28;20036;-44
2022/09/09 06:35:52;;;;;;;4.03;1.20;;;;;;;;;;5070987;28;20039;-44
2022/09/09 06:38:21;;;;;;;1.58;1.10;;;;;;;;;;5071132;28;20029;-44
2022/09/09 06:40:58;;;;;;;3.88;1.95;;;;;;;;;;5070948;28;20031;-44
2022/09/09 06:43:24;;;;;;;1.73;1.20;;;;;;;;;;5070880;28;20036;-44
2022/09/09 06:46:01;;;;;;;1.67;1.40;;;;;;;;;;5054316;28;20527;-44
2022/09/09 06:48:29;;;;;;;5.80;1.30;;;;;;;;;;5070776;28;20047;-44
2022/09/09 06:51:01;;;;;;;3.72;1.55;;;;;;;;;;5072414;28;20029;-44
2022/09/09 06:53:27;;;;;;;2.55;0.93;;;;;;;;;;5070810;28;20077;-45
2022/09/09 06:55:54;;;;;;;4.25;1.25;;;;;;;;;;5070673;28;20116;-44
2022/09/09 06:58:21;;;;;;;4.07;1.48;;;;;;;;;;5070715;28;20782;-44
2022/09/09 07:00:47;;;;;;;2.55;1.27;;;;;;;;;;5070593;28;20089;-44
2022/09/09 07:03:13;;;;;;;3.13;1.80;;;;;;;;;;5072011;28;20025;-43
2022/09/09 07:05:39;;;;;;;1.83;1.25;;;;;;;;;;5070475;28;20033;-44
2022/09/09 07:08:05;;;;;;;2.05;1.10;;;;;;;;;;5071720;28;20031;-44
2022/09/09 07:10:30;;;;;;;1.42;1.23;;;;;;;;;;5070324;28;20059;-44
2022/09/09 07:12:56;;;;;;;4.57;1.95;;;;;;;;;;5071720;28;20111;-44
2022/09/09 07:15:24;;;;;;;4.25;1.40;;;;;;;;;;5054132;28;20020;-44
2022/09/09 07:17:50;;;;;;;1.63;1.25;;;;;;;;;;5070307;28;20386;-44
2022/09/09 07:20:17;;;;;;;2.72;1.73;;;;;;;;;;5070475;28;20032;-44
2022/09/09 07:22:42;;;;;;;2.28;1.88;;;;;;;;;;5070378;28;20071;-44
2022/09/09 07:25:09;;;;;;;6.80;1.70;;;;;;;;;;5053880;28;20449;-44
2022/09/09 07:27:35;;;;;;;3.13;1.75;;;;;;;;;;5070395;28;20032;-44
2022/09/09 07:30:02;;;;;;;3.15;2.15;;;;;;;;;;5070102;28;20036;-44
2022/09/09 07:32:30;;;;;;;7.57;2.22;;;;;;;;;;5071583;28;20050;-44
2022/09/09 07:34:57;;;;;;;2.53;1.50;;;;;;;;;;5070099;28;20020;-44
2022/09/09 07:37:24;;;;;;;2.63;1.83;;;;;;;;;;5070165;28;20029;-45
2022/09/09 07:39:51;;;;;;;3.22;1.80;;;;;;;;;;5070066;28;20466;-44
2022/09/09 07:42:17;;;;;;;2.08;1.85;;;;;;;;;;5070090;28;20494;-44
2022/09/09 07:44:42;;;;;;;1.60;1.50;;;;;;;;;;5070056;28;20047;-45
2022/09/09 07:47:11;;;;;;;1.90;1.58;;;;;;;;;;5070080;28;20035;-44
2022/09/09 07:49:46;;;;;;;2.33;1.63;;;;;;;;;;5070005;28;20075;-44
2022/09/09 07:52:13;;;;;;;4.30;2.10;;;;;;;;;;5069991;28;20031;-43
2022/09/09 07:54:41;;;;;;;1.75;1.23;;;;;;;;;;5070026;28;20028;-44
2022/09/09 07:57:07;;;;;;;3.22;1.38;;;;;;;;;;5071544;28;20036;-44
2022/09/09 07:59:34;;;;;;;1.95;1.45;;;;;;;;;;5069893;28;20024;-43
2022/09/09 08:02:01;;;;;;;2.65;1.52;;;;;;;;;;5069940;28;20483;-44
2022/09/09 08:04:29;;;;;;;2.95;1.58;;;;;;;;;;5069847;28;20021;-44
2022/09/09 08:06:57;;;;;;;3.05;1.70;;;;;;;;;;5069905;28;20415;-44
2022/09/09 08:09:28;;;;;;;2.63;1.58;;;;;;;;;;5069730;28;20386;-44
2022/09/09 08:11:58;;;;;;;2.55;1.85;;;;;;;;;;5069832;28;20094;-46
2022/09/09 08:14:24;;;;;;;3.65;1.70;;;;;;;;;;5069808;28;20032;-44
2022/09/09 08:16:50;;;;;;;2.65;2.17;;;;;;;;;;5071307;28;20089;-44
2022/09/09 08:19:19;;;;;;;1.42;1.33;;;;;;;;;;5069790;28;20044;-44
2022/09/09 08:21:46;;;;;;;1.50;1.30;;;;;;;;;;5069730;28;20111;-44
2022/09/09 08:24:13;;;;;;;1.85;1.02;;;;;;;;;;5069817;28;20515;-44
2022/09/09 08:26:41;;;;;;;1.98;1.23;;;;;;;;;;5069691;28;20479;-44
2022/09/09 08:29:08;;;;;;;1.77;1.60;;;;;;;;;;5070856;28;20060;-44
2022/09/09 08:31:34;;;;;;;2.25;1.40;;;;;;;;;;5071302;28;20417;-44
2022/09/09 08:34:02;;;;;;;4.35;1.17;;;;;;;;;;5069475;28;20020;-44
2022/09/09 08:36:29;;;;;;;1.45;1.23;;;;;;;;;;5069669;28;20063;-44
2022/09/09 08:38:56;;;;;;;4.00;1.90;;;;;;;;;;5069480;28;20763;-45
2022/09/09 08:41:40;;;;;;;6.05;1.38;;;;;;;;;;5052895;28;20040;-44
2022/09/09 08:44:23;;;;;;;1.67;1.23;;;;;;;;;;5069382;28;20025;-44
2022/09/09 08:46:49;;;;;;;3.88;1.33;;;;;;;;;;5070810;28;20039;-44
2022/09/09 08:49:18;;;;;;;1.55;0.90;;;;;;;;;;5069361;28;20532;-44
2022/09/09 08:51:43;;;;;;;1.67;1.30;;;;;;;;;;5052906;28;20036;-44
2022/09/09 08:54:09;;;;;;;4.57;1.58;;;;;;;;;;5072757;28;20016;-44
2022/09/09 08:56:35;;;;;;;2.55;1.50;;;;;;;;;;5073070;28;20032;-44
2022/09/09 08:59:03;;;;;;;2.28;1.63;;;;;;;;;;5074362;28;20025;-44
2022/09/09 09:01:58;;;;;;;1.95;1.25;;;;;;;;;;5072999;28;20567;-43
2022/09/09 09:04:41;;;;;;;1.73;1.25;;;;;;;;;;5072971;28;20067;-44
2022/09/09 09:07:21;;;;;;;1.10;0.88;;;;;;;;;;5072911;28;20072;-44
2022/09/09 09:09:59;;;;;;;1.42;0.82;;;;;;;;;;5073912;28;20052;-44
2022/09/09 09:12:26;;;;;;;1.35;1.00;;;;;;;;;;5056337;28;20612;-44
2022/09/09 09:14:56;;;;;;;2.75;1.45;;;;;;;;;;5073975;28;20032;-44
2022/09/09 09:17:23;;;;;;;5.75;1.30;;;;;;;;;;5074055;28;20063;-44
2022/09/09 09:19:52;;;;;;;1.10;0.88;;;;;;;;;;5072577;28;20020;-45
2022/09/09 09:22:17;;;;;;;3.35;1.25;;;;;;;;;;5072683;28;20039;-44
2022/09/09 09:24:53;;;;;;;1.75;1.10;;;;;;;;;;5072527;28;20135;-44
2022/09/09 09:27:25;;;;;;;2.63;0.90;;;;;;;;;;5072660;28;20035;-44
2022/09/09 09:29:54;;;;;;;1.38;1.08;;;;;;;;;;5072346;28;20041;-43
2022/09/09 09:32:20;;;;;;;1.20;0.85;;;;;;;;;;5072465;28;20098;-44
2022/09/09 09:34:56;;;;;;;1.80;0.82;;;;;;;;;;5072326;28;20029;-44
2022/09/09 09:37:34;;;;;;;1.42;1.08;;;;;;;;;;5072383;28;20036;-45
2022/09/09 09:40:09;;;;;;;1.40;1.30;;;;;;;;;;5072158;28;20397;-44
2022/09/09 09:42:35;;;;;;;1.65;0.80;;;;;;;;;;5072353;28;20032;-44
2022/09/09 09:45:20;;;;;;;2.90;1.00;;;;;;;;;;5073370;28;20017;-44
2022/09/09 09:47:46;;;;;;;1.38;0.90;;;;;;;;;;5072157;28;20032;-44
2022/09/09 09:50:17;;;;;;;2.95;1.23;;;;;;;;;;5073608;28;20115;-44
2022/09/09 09:52:44;;;;;;;1.33;0.70;;;;;;;;;;5073605;28;20052;-44
2022/09/09 09:55:13;;;;;;;1.42;1.05;;;;;;;;;;5071898;28;20031;-43
2022/09/09 09:57:39;;;;;;;3.50;0.98;;;;;;;;;;5072017;28;20482;-45
2022/09/09 10:00:17;;;;;;;1.58;1.00;;;;;;;;;;5071827;28;20391;-44
2022/09/09 10:02:48;;;;;;;1.70;1.13;;;;;;;;;;5071780;28;20043;-44
2022/09/09 10:05:19;;;;;;;2.70;1.35;;;;;;;;;;5070637;28;20025;-44
2022/09/09 10:08:20;;;;;;;1.50;1.20;;;;;;;;;;5055351;28;20577;-44
2022/09/09 10:11:05;;;;;;;2.72;1.42;;;;;;;;;;5039002;28;20149;-44
2022/09/09 10:13:32;;;;;;;2.30;1.50;;;;;;;;;;5073125;28;20020;-44
2022/09/09 10:16:16;;;;;;;1.77;1.40;;;;;;;;;;5073056;28;20099;-44
2022/09/09 10:18:57;;;;;;;2.05;1.35;;;;;;;;;;5072897;28;20118;-44
2022/09/09 10:21:28;;;;;;;1.45;1.17;;;;;;;;;;5073073;28;20025;-44
2022/09/09 10:24:00;;;;;;;3.00;1.00;;;;;;;;;;5072692;28;20028;-44
2022/09/09 10:26:28;;;;;;;1.00;0.88;;;;;;;;;;5072981;28;20067;-44
2022/09/09 10:29:17;;;;;;;2.65;1.13;;;;;;;;;;5072442;28;20383;-44
2022/09/09 10:31:52;;;;;;;1.00;0.90;;;;;;;;;;5072678;28;20036;-44
2022/09/09 10:34:37;;;;;;;1.92;0.95;;;;;;;;;;5072488;28;20032;-44
2022/09/09 10:37:08;;;;;;;1.52;1.10;;;;;;;;;;5072410;28;20075;-44
2022/09/09 10:39:42;;;;;;;4.47;1.08;;;;;;;;;;5072722;28;20043;-44
2022/09/09 10:42:14;;;;;;;1.45;1.20;;;;;;;;;;5072256;28;20429;-44
2022/09/09 10:44:49;;;;;;;0.73;0.52;;;;;;;;;;5072601;28;20039;-44
2022/09/09 10:47:33;;;;;;;1.85;0.93;;;;;;;;;;5072291;28;20035;-44
2022/09/09 10:50:17;;;;;;;1.27;0.77;;;;;;;;;;5072024;28;20040;-44
2022/09/09 10:52:42;;;;;;;1.20;0.77;;;;;;;;;;5072529;28;20352;-44
2022/09/09 10:55:17;;;;;;;0.70;0.70;;;;;;;;;;5072055;28;20019;-44
2022/09/09 10:57:52;;;;;;;0.93;0.52;;;;;;;;;;5072259;28;20036;-44
2022/09/09 11:00:22;;;;;;;2.00;0.93;;;;;;;;;;5071985;28;20040;-44
2022/09/09 11:02:54;;;;;;;1.48;0.60;;;;;;;;;;5071937;28;20028;-44
2022/09/09 11:05:47;;;;;;;2.72;0.52;;;;;;;;;;5072212;28;20037;-44
2022/09/09 11:08:18;;;;;;;2.50;0.40;;;;;;;;;;5069260;28;20467;-44
2022/09/09 11:10:58;;;;;;;0.82;0.70;;;;;;;;;;5071531;28;20163;-44
2022/09/09 11:13:48;;;;;;;0.88;0.50;;;;;;;;;;5072130;28;20162;-44
2022/09/09 11:16:29;;;;;;;2.33;0.95;;;;;;;;;;5063830;28;20097;-45
2022/09/09 11:19:00;;;;;;;0.55;0.55;;;;;;;;;;5071641;28;20085;-44
2022/09/09 11:21:29;;;;;;;1.08;0.98;;;;;;;;;;5070429;28;20115;-44
2022/09/09 11:23:59;;;;;;;0.70;0.40;;;;;;;;;;5071506;28;20020;-44
2022/09/09 11:26:44;;;;;;;0.43;0.40;;;;;;;;;;5071670;28;20496;-44
2022/09/09 11:29:14;;;;;;;0.55;0.55;;;;;;;;;;5071504;28;20040;-44
2022/09/09 11:31:55;;;;;;;0.52;0.35;;;;;;;;;;5071513;28;20471;-44
2022/09/09 11:34:27;;;;;;;0.82;0.68;;;;;;;;;;5071809;28;20085;-44
2022/09/09 11:37:28;;;;;;;0.63;0.50;;;;;;;;;;5071483;28;20035;-44
2022/09/09 11:39:56;;;;;;;0.50;0.47;;;;;;;;;;5009218;28;20497;-44
2022/09/09 11:42:23;;;;;;;0.68;0.60;;;;;;;;;;5059593;28;20438;-44
2022/09/09 11:44:49;;;;;;;0.65;0.55;;;;;;;;;;5071459;28;20028;-44
2022/09/09 11:47:29;;;;;;;0.98;0.63;;;;;;;;;;5071636;28;20012;-44
2022/09/09 11:50:08;;;;;;;1.10;0.57;;;;;;;;;;5071250;28;20097;-44
2022/09/09 11:52:36;;;;;;;0.63;0.40;;;;;;;;;;5070087;28;20029;-44
2022/09/09 11:55:10;;;;;;;0.63;0.40;;;;;;;;;;5071487;28;20020;-44
2022/09/09 11:57:36;;;;;;;0.82;0.40;;;;;;;;;;5071678;28;20036;-44
2022/09/09 12:00:03;;;;;;;1.05;0.88;;;;;;;;;;5071256;28;20378;-44
2022/09/09 12:02:47;;;;;;;0.30;0.30;;;;;;;;;;5071309;28;20040;-45
2022/09/09 12:05:16;;;;;;;1.63;0.30;;;;;;;;;;5071469;28;20020;-45
2022/09/09 12:07:45;;;;;;;0.63;0.40;;;;;;;;;;5071442;28;20027;-44
2022/09/09 12:10:28;;;;;;;0.38;0.28;;;;;;;;;;5071027;28;20052;-44
2022/09/09 12:12:54;;;;;;;0.90;0.35;;;;;;;;;;5071136;28;20475;-44
2022/09/09 12:15:20;;;;;;;1.52;0.70;;;;;;;;;;5071048;28;20024;-44
2022/09/09 12:17:53;;;;;;;0.90;0.57;;;;;;;;;;5071105;28;20033;-44
2022/09/09 12:20:20;;;;;;;0.88;0.40;;;;;;;;;;5071182;28;20527;-44
2022/09/09 12:22:46;;;;;;;0.55;0.43;;;;;;;;;;5071263;28;20016;-44
2022/09/09 12:25:21;;;;;;;1.10;0.50;;;;;;;;;;5071207;28;20117;-44
2022/09/09 12:28:05;;;;;;;3.10;0.55;;;;;;;;;;5072651;28;20066;-44
2022/09/09 12:30:34;;;;;;;1.08;0.68;;;;;;;;;;5074869;28;20037;-44
2022/09/09 12:33:10;;;;;;;3.58;0.43;;;;;;;;;;5074739;28;20100;-44
2022/09/09 12:35:38;;;;;;;1.20;0.82;;;;;;;;;;5074860;28;20099;-44
2022/09/09 12:38:06;;;;;;;0.73;0.57;;;;;;;;;;5074676;28;20016;-44
2022/09/09 12:40:35;;;;;;;1.58;0.90;;;;;;;;;;5074729;28;20025;-44
2022/09/09 12:43:02;;;;;;;0.77;0.60;;;;;;;;;;5074464;28;20070;-44
2022/09/09 12:45:31;;;;;;;0.50;0.50;;;;;;;;;;5074573;28;20078;-44
2022/09/09 12:48:00;;;;;;;1.45;0.60;;;;;;;;;;5074519;28;20628;-44
2022/09/09 12:50:30;;;;;;;0.90;0.70;;;;;;;;;;5074426;28;20045;-44
2022/09/09 12:53:20;;;;;;;1.15;0.50;;;;;;;;;;5074736;28;20135;-44
2022/09/09 12:56:02;;;;;;;1.40;0.50;;;;;;;;;;5045754;28;20072;-44
2022/09/09 12:58:32;;;;;;;0.43;0.43;;;;;;;;;;5074367;28;20085;-44
2022/09/09 13:00:59;;;;;;;1.52;0.70;;;;;;;;;;5074244;28;20056;-44
2022/09/09 13:03:26;;;;;;;0.57;0.50;;;;;;;;;;5074279;28;20056;-44
2022/09/09 13:05:53;;;;;;;0.57;0.47;;;;;;;;;;5074437;28;20373;-44
2022/09/09 13:08:22;;;;;;;1.02;0.55;;;;;;;;;;5074324;28;20028;-44
2022/09/09 13:10:47;;;;;;;1.48;0.50;;;;;;;;;;5073796;28;20514;-44
2022/09/09 13:13:19;;;;;;;0.70;0.70;;;;;;;;;;5073977;28;20036;-44
2022/09/09 13:15:53;;;;;;;1.87;0.67;;;;;;;;;;5074005;28;20024;-44
2022/09/09 13:18:21;;;;;;;1.05;0.75;;;;;;;;;;5074019;28;20029;-44
2022/09/09 13:20:47;;;;;;;0.75;0.50;;;;;;;;;;5074021;28;20169;-44
2022/09/09 13:23:20;;;;;;;2.25;0.70;;;;;;;;;;5073912;28;20041;-44
2022/09/09 13:25:58;;;;;;;1.33;0.93;;;;;;;;;;5072557;28;20035;-44
2022/09/09 13:28:25;;;;;;;1.08;0.88;;;;;;;;;;5073876;28;20483;-44
2022/09/09 13:31:19;;;;;;;2.63;0.80;;;;;;;;;;5073616;28;20048;-44
2022/09/09 13:33:45;;;;;;;0.70;0.70;;;;;;;;;;5073667;28;20483;-44
2022/09/09 13:36:13;;;;;;;1.00;0.90;;;;;;;;;;5073575;28;20070;-44
2022/09/09 13:38:40;;;;;;;0.88;0.88;;;;;;;;;;5073453;28;20121;-45
2022/09/09 13:41:07;;;;;;;0.95;0.95;;;;;;;;;;5072185;28;20379;-44
2022/09/09 13:43:52;;;;;;;0.32;0.32;;;;;;;;;;5073611;28;20032;-44
2022/09/09 13:46:24;;;;;;;4.05;0.95;;;;;;;;;;5073569;28;20041;-44
2022/09/09 13:48:59;;;;;;;1.40;0.57;;;;;;;;;;5073299;28;20040;-44
2022/09/09 13:51:46;;;;;;;1.98;0.70;;;;;;;;;;5073443;28;20399;-44
2022/09/09 13:54:13;;;;;;;0.50;0.50;;;;;;;;;;5073507;28;20021;-44
2022/09/09 13:56:39;;;;;;;0.73;0.57;;;;;;;;;;5073618;28;20056;-44
2022/09/09 13:59:06;;;;;;;1.40;0.65;;;;;;;;;;5073574;28;20047;-44
2022/09/09 14:01:34;;;;;;;0.93;0.50;;;;;;;;;;5073136;28;20158;-45
2022/09/09 14:04:00;;;;;;;3.85;0.80;;;;;;;;;;5073047;28;20028;-45
2022/09/09 14:06:27;;;;;;;0.68;0.47;;;;;;;;;;5073213;28;20016;-44
2022/09/09 14:08:54;;;;;;;0.50;0.50;;;;;;;;;;5072884;28;20043;-44
2022/09/09 14:11:21;;;;;;;2.20;0.65;;;;;;;;;;5072964;28;20036;-45
2022/09/09 14:13:47;;;;;;;1.70;0.50;;;;;;;;;;5073198;28;20110;-44
2022/09/09 14:16:13;;;;;;;0.93;0.60;;;;;;;;;;5072871;28;20417;-44
2022/09/09 14:18:39;;;;;;;1.08;0.55;;;;;;;;;;5073178;28;20029;-44
2022/09/09 14:21:04;;;;;;;1.30;0.65;;;;;;;;;;5072758;28;20486;-44
2022/09/09 14:23:30;;;;;;;0.60;0.50;;;;;;;;;;5072676;28;20025;-44
2022/09/09 14:25:58;;;;;;;0.68;0.55;;;;;;;;;;5072737;28;20021;-44
2022/09/09 14:28:25;;;;;;;0.40;0.40;;;;;;;;;;5072685;28;20480;-44
2022/09/09 14:30:50;;;;;;;0.50;0.40;;;;;;;;;;5071064;28;20430;-44
2022/09/09 14:33:16;;;;;;;1.55;1.00;;;;;;;;;;5072869;28;20040;-44
2022/09/09 14:35:42;;;;;;;0.60;0.60;;;;;;;;;;5072643;28;20112;-45
2022/09/09 14:38:08;;;;;;;0.50;0.32;;;;;;;;;;5072304;28;20033;-44
2022/09/09 14:40:38;;;;;;;4.15;0.70;;;;;;;;;;5072539;28;20031;-44
2022/09/09 14:43:05;;;;;;;1.25;0.85;;;;;;;;;;5072332;28;20077;-44
2022/09/09 14:45:31;;;;;;;18.15;1.05;;;;;;;;;;5072585;28;20044;-44
2022/09/09 14:47:57;;;;;;;0.75;0.68;;;;;;;;;;5072300;28;20033;-44
2022/09/09 14:50:23;;;;;;;0.40;0.40;;;;;;;;;;5071539;28;20029;-44
2022/09/09 14:52:50;;;;;;;0.47;0.43;;;;;;;;;;5072160;28;20032;-45
2022/09/09 14:55:16;;;;;;;0.75;0.43;;;;;;;;;;5072266;28;20012;-44
2022/09/09 14:57:41;;;;;;;1.17;0.40;;;;;;;;;;5072382;28;20058;-44
2022/09/09 15:00:08;;;;;;;0.45;0.45;;;;;;;;;;5072081;28;20032;-44
2022/09/09 15:02:33;;;;;;;3.33;0.60;;;;;;;;;;5072080;28;20035;-44
2022/09/09 15:04:59;;;;;;;2.55;1.30;;;;;;;;;;5072078;28;20020;-44